Time;durP1;ratioP1;P1;durP2;ratioP2;P2;SDS_P1;SDS_P2;PMS_P1;PMS_P2;Temp;Humidity;BMP_temperature;BMP_pressure;BME280_temperature;BME280_humidity;BME280_pressure;Samples;Min_cycle;Max_cycle;Signal;HPM_P1;HPM_P2
2021/09/08 00:08:32;;;;;;;19.80;17.98;;;18.60;99.90;;;;;;4979299;28;20267;-79
2021/09/08 00:21:52;;;;;;;11.32;7.07;;;18.40;99.90;;;;;;4977702;28;20208;-78
2021/09/08 00:32:29;;;;;;;21.52;19.25;;;18.20;99.90;;;;;;4972863;28;20210;-78
2021/09/08 00:37:53;;;;;;;19.90;18.08;;;18.10;99.90;;;;;;4972582;28;20219;-77
2021/09/08 00:40:22;;;;;;;27.33;24.73;;;18.10;99.90;;;;;;4972608;28;20236;-77
2021/09/08 00:42:51;;;;;;;23.50;21.17;;;18.10;99.90;;;;;;4972463;28;20435;-78
2021/09/08 00:45:18;;;;;;;26.33;23.98;;;18.10;99.90;;;;;;4972385;28;20208;-77
2021/09/08 00:47:53;;;;;;;22.95;20.65;;;18.10;99.90;;;;;;4976202;28;20228;-78
2021/09/08 00:50:20;;;;;;;23.00;21.08;;;18.10;99.90;;;;;;4974692;28;20216;-78
2021/09/08 00:52:49;;;;;;;23.27;20.85;;;18.10;99.90;;;;;;4974332;28;20560;-77
2021/09/08 00:55:25;;;;;;;30.00;27.73;;;18.00;99.90;;;;;;4981587;28;20214;-77
2021/09/08 01:00:34;;;;;;;27.98;25.92;;;17.90;99.90;;;;;;4986129;28;20203;-78
2021/09/08 01:03:00;;;;;;;35.08;32.63;;;18.00;99.90;;;;;;4980407;28;20244;-79
2021/09/08 01:05:29;;;;;;;26.15;24.15;;;18.00;99.90;;;;;;4976731;28;20207;-79
2021/09/08 01:07:59;;;;;;;24.67;22.50;;;17.90;99.90;;;;;;4975723;28;20240;-79
2021/09/08 01:10:27;;;;;;;31.38;28.80;;;17.90;99.90;;;;;;4980509;28;20267;-78
2021/09/08 01:20:57;;;;;;;21.95;20.05;;;17.70;99.90;;;;;;4979040;28;20265;-79
2021/09/08 01:23:25;;;;;;;53.42;49.97;;;17.70;99.90;;;;;;4974000;28;20203;-78
2021/09/08 01:25:53;;;;;;;57.22;53.50;;;17.70;99.90;;;;;;4976490;28;20228;-78
2021/09/08 01:33:46;;;;;;;62.20;58.42;;;17.60;99.90;;;;;;4972188;28;20208;-79
2021/09/08 01:36:12;;;;;;;57.67;54.03;;;17.50;99.90;;;;;;4972395;28;20258;-79
2021/09/08 01:38:41;;;;;;;56.78;53.13;;;17.50;99.90;;;;;;4972031;28;20203;-78
2021/09/08 01:41:08;;;;;;;56.95;53.55;;;17.50;99.90;;;;;;4972297;28;20251;-79
2021/09/08 01:43:35;;;;;;;40.22;37.63;;;17.50;99.90;;;;;;4972762;28;20216;-79
2021/09/08 01:51:31;;;;;;;52.83;49.75;;;17.40;99.90;;;;;;4982366;28;20597;-79
2021/09/08 01:54:14;;;;;;;36.58;33.97;;;17.30;99.90;;;;;;4976098;28;20238;-79
2021/09/08 01:56:41;;;;;;;44.15;40.85;;;17.30;99.90;;;;;;4982901;28;20207;-78
2021/09/08 01:59:09;;;;;;;26.38;23.85;;;17.20;99.90;;;;;;4982301;28;20274;-80
2021/09/08 02:01:35;;;;;;;33.15;30.90;;;17.10;99.90;;;;;;4978883;28;20208;-78
2021/09/08 02:04:03;;;;;;;56.95;53.63;;;17.10;99.90;;;;;;4981383;28;20214;-78
2021/09/08 02:06:29;;;;;;;49.35;46.17;;;17.10;99.90;;;;;;4970474;28;20306;-78
2021/09/08 02:11:48;;;;;;;55.72;52.33;;;17.10;99.90;;;;;;4970195;28;20207;-78
2021/09/08 02:25:06;;;;;;;39.15;36.55;;;17.00;99.90;;;;;;4968603;28;20285;-79
2021/09/08 02:27:50;;;;;;;33.92;31.35;;;17.00;99.90;;;;;;4969941;28;20230;-79
2021/09/08 02:32:58;;;;;;;43.22;40.30;;;16.90;99.90;;;;;;4970862;28;20218;-76
2021/09/08 02:35:25;;;;;;;20.15;18.25;;;16.80;99.90;;;;;;4971441;28;20305;-79
2021/09/08 02:37:51;;;;;;;28.17;26.02;;;16.80;99.90;;;;;;4977720;28;20214;-79
2021/09/08 02:40:26;;;;;;;16.10;12.43;;;16.80;99.90;;;;;;4970819;28;20339;-77
2021/09/08 02:42:54;;;;;;;12.13;8.38;;;16.80;99.90;;;;;;4976100;28;20209;-78
2021/09/08 02:45:21;;;;;;;32.50;30.40;;;16.70;99.90;;;;;;4976392;28;20207;-77
2021/09/08 02:47:52;;;;;;;25.58;23.52;;;16.60;99.90;;;;;;4989570;28;20232;-78
2021/09/08 02:50:19;;;;;;;48.88;45.72;;;16.60;99.90;;;;;;4974828;28;20257;-78
2021/09/08 03:01:06;;;;;;;14.20;8.55;;;16.50;99.90;;;;;;4979856;28;20221;-78
2021/09/08 03:03:33;;;;;;;13.93;7.60;;;16.50;99.90;;;;;;4979615;28;20239;-77
2021/09/08 03:06:00;;;;;;;16.88;14.45;;;16.50;99.90;;;;;;4974781;28;20235;-77
2021/09/08 03:08:27;;;;;;;15.02;10.23;;;16.50;99.90;;;;;;4979660;28;20210;-77
2021/09/08 03:10:54;;;;;;;44.22;41.17;;;16.50;99.90;;;;;;4980000;28;20235;-78
2021/09/08 03:13:21;;;;;;;47.45;44.13;;;16.50;99.90;;;;;;4973677;28;20202;-78
2021/09/08 03:15:50;;;;;;;74.32;70.03;;;16.50;99.90;;;;;;4980455;28;20551;-78
2021/09/08 03:18:18;;;;;;;62.53;58.65;;;16.50;99.90;;;;;;4967175;28;20233;-78
2021/09/08 03:20:45;;;;;;;58.47;54.95;;;16.50;99.90;;;;;;4973661;28;20216;-77
2021/09/08 03:23:12;;;;;;;47.50;44.03;;;16.40;99.90;;;;;;4974762;28;20215;-77
2021/09/08 03:25:39;;;;;;;62.60;58.72;;;16.40;99.90;;;;;;4981248;28;20198;-78
2021/09/08 03:28:07;;;;;;;77.03;72.85;;;16.30;99.90;;;;;;4973830;28;20261;-78
2021/09/08 03:30:34;;;;;;;81.35;76.60;;;16.30;99.90;;;;;;4973116;28;20297;-78
2021/09/08 03:33:10;;;;;;;103.82;98.00;;;16.20;99.90;;;;;;4979872;28;20275;-77
2021/09/08 03:35:45;;;;;;;39.85;37.03;;;16.30;99.90;;;;;;4977782;28;20254;-78
2021/09/08 03:43:41;;;;;;;13.18;9.18;;;16.20;99.90;;;;;;4973711;28;20209;-77
2021/09/08 03:48:51;;;;;;;18.83;9.90;;;16.20;99.90;;;;;;4972074;28;20243;-77
2021/09/08 03:51:18;;;;;;;12.75;8.05;;;16.20;99.90;;;;;;4978416;28;20234;-79
2021/09/08 03:53:53;;;;;;;13.77;7.97;;;16.20;99.90;;;;;;4974981;28;20211;-80
2021/09/08 03:56:27;;;;;;;14.23;8.80;;;16.20;99.90;;;;;;4979592;28;20239;-79
2021/09/08 04:07:06;;;;;;;58.92;55.40;;;16.20;99.90;;;;;;4992138;28;20229;-79
2021/09/08 04:09:34;;;;;;;39.38;36.70;;;16.10;99.90;;;;;;4986035;28;20226;-77
2021/09/08 04:12:01;;;;;;;73.57;69.25;;;16.20;99.90;;;;;;4980672;28;20212;-79
2021/09/08 04:14:28;;;;;;;20.98;18.90;;;16.10;99.90;;;;;;4979573;28;20729;-79
2021/09/08 04:16:55;;;;;;;56.22;52.35;;;16.10;99.90;;;;;;4982073;28;20210;-79
2021/09/08 04:19:23;;;;;;;81.07;76.53;;;16.10;99.90;;;;;;4975215;28;20254;-79
2021/09/08 04:21:50;;;;;;;92.88;87.85;;;16.00;99.90;;;;;;4980203;28;20284;-79
2021/09/08 04:24:17;;;;;;;87.93;83.05;;;15.90;99.90;;;;;;4978942;28;20203;-79
2021/09/08 04:32:08;;;;;;;39.05;36.50;;;15.90;99.90;;;;;;4982057;28;20219;-79
2021/09/08 04:34:37;;;;;;;52.53;49.17;;;15.80;99.90;;;;;;4979192;28;20213;-79
2021/09/08 04:37:04;;;;;;;34.35;31.35;;;15.80;99.90;;;;;;4973183;28;20212;-79
2021/09/08 04:39:31;;;;;;;77.20;72.85;;;15.80;99.90;;;;;;4973368;28;20230;-78
2021/09/08 04:41:57;;;;;;;87.25;82.65;;;15.80;99.90;;;;;;4974375;28;20207;-79
2021/09/08 04:47:05;;;;;;;27.95;25.90;;;15.80;99.90;;;;;;4981587;28;20261;-78
2021/09/08 04:49:32;;;;;;;89.40;84.10;;;15.80;99.90;;;;;;4982484;28;20223;-78
2021/09/08 04:52:04;;;;;;;126.18;119.13;;;15.80;99.90;;;;;;4972943;28;20203;-79
2021/09/08 04:54:31;;;;;;;54.55;50.60;;;15.80;99.90;;;;;;4972694;28;20579;-78
2021/09/08 04:56:58;;;;;;;92.28;86.55;;;15.80;99.90;;;;;;4982517;28;20210;-78
2021/09/08 04:59:26;;;;;;;93.53;88.10;;;15.80;99.90;;;;;;4978817;28;20711;-79
2021/09/08 05:01:54;;;;;;;14.73;11.02;;;15.80;99.90;;;;;;4983435;28;20475;-78
2021/09/08 05:04:21;;;;;;;45.17;41.97;;;15.80;99.90;;;;;;4978439;28;20237;-78
2021/09/08 05:06:48;;;;;;;93.47;88.47;;;15.80;99.90;;;;;;4972257;28;20242;-79
2021/09/08 05:09:20;;;;;;;71.30;67.15;;;15.80;99.90;;;;;;4975118;28;20203;-79
2021/09/08 05:11:48;;;;;;;52.15;48.55;;;15.90;99.90;;;;;;4973666;28;20208;-79
2021/09/08 05:14:15;;;;;;;162.82;153.57;;;15.90;99.90;;;;;;4972276;28;20254;-79
2021/09/08 05:22:06;;;;;;;88.07;83.00;;;15.90;99.90;;;;;;4984095;28;20207;-79
2021/09/08 05:24:34;;;;;;;64.30;60.42;;;15.90;99.90;;;;;;4973017;28;20244;-79
2021/09/08 05:27:01;;;;;;;99.00;93.25;;;15.90;99.90;;;;;;4978330;28;20223;-78
2021/09/08 05:29:28;;;;;;;45.25;42.15;;;15.90;99.90;;;;;;4975309;28;20207;-79
2021/09/08 05:31:56;;;;;;;89.35;84.07;;;15.90;99.90;;;;;;4972156;28;20207;-78
2021/09/08 05:34:30;;;;;;;54.03;50.42;;;15.90;99.90;;;;;;4970720;28;20207;-78
2021/09/08 05:36:57;;;;;;;14.63;9.95;;;15.90;99.90;;;;;;4980991;28;20278;-78
2021/09/08 05:39:24;;;;;;;70.82;66.35;;;15.90;99.90;;;;;;4976748;28;20207;-78
2021/09/08 05:41:53;;;;;;;14.77;9.70;;;15.90;99.90;;;;;;4971280;28;20211;-76
2021/09/08 05:44:20;;;;;;;21.42;19.27;;;15.90;99.90;;;;;;4970947;28;20250;-78
2021/09/08 05:46:47;;;;;;;24.90;22.30;;;15.90;99.90;;;;;;4974315;28;20212;-77
2021/09/08 05:49:14;;;;;;;36.33;33.63;;;15.90;99.90;;;;;;4977590;28;20672;-77
2021/09/08 05:51:42;;;;;;;36.85;34.28;;;16.00;99.90;;;;;;4970029;28;20215;-77
2021/09/08 05:54:09;;;;;;;36.63;33.88;;;16.00;99.90;;;;;;4970376;28;20211;-78
2021/09/08 05:56:36;;;;;;;35.22;32.33;;;16.10;99.90;;;;;;4976076;28;20281;-78
2021/09/08 05:59:05;;;;;;;42.67;39.65;;;16.10;99.90;;;;;;4974023;28;20261;-78
2021/09/08 06:01:32;;;;;;;42.13;39.13;;;16.20;99.90;;;;;;4981276;28;20211;-78
2021/09/08 06:03:59;;;;;;;30.05;27.25;;;16.20;99.90;;;;;;4970823;28;20222;-78
2021/09/08 06:06:26;;;;;;;20.30;15.52;;;16.20;99.90;;;;;;4980747;28;20301;-78
2021/09/08 06:08:54;;;;;;;43.00;39.85;;;16.30;99.90;;;;;;4972450;28;20296;-78
2021/09/08 06:11:21;;;;;;;32.17;29.52;;;16.30;99.90;;;;;;4972836;28;20211;-77
2021/09/08 06:13:48;;;;;;;31.95;29.45;;;16.30;99.90;;;;;;4979060;28;20269;-78
2021/09/08 06:16:16;;;;;;;40.78;37.90;;;16.30;99.90;;;;;;4974536;28;20202;-78
2021/09/08 06:18:43;;;;;;;32.03;29.25;;;16.40;99.90;;;;;;4974051;28;20211;-78
2021/09/08 06:29:13;;;;;;;23.27;21.17;;;16.50;99.90;;;;;;4973446;28;20237;-78
2021/09/08 06:31:41;;;;;;;19.55;12.93;;;16.50;99.90;;;;;;4980791;28;20210;-78
2021/09/08 06:34:09;;;;;;;18.15;15.43;;;16.50;99.90;;;;;;4982526;28;20257;-78
2021/09/08 06:36:36;;;;;;;16.55;14.77;;;16.60;99.90;;;;;;4982641;28;20211;-78
2021/09/08 06:39:03;;;;;;;17.60;14.50;;;16.70;99.90;;;;;;4973459;28;20227;-78
2021/09/08 06:41:30;;;;;;;18.45;10.63;;;16.80;99.90;;;;;;4976314;28;20196;-78
2021/09/08 06:43:57;;;;;;;16.10;10.48;;;16.80;99.90;;;;;;4976290;28;20209;-78
2021/09/08 06:46:24;;;;;;;16.52;11.02;;;16.90;99.90;;;;;;4973820;28;20209;-78
2021/09/08 06:48:52;;;;;;;16.58;10.80;;;17.00;99.90;;;;;;4973970;28;20232;-78
2021/09/08 06:51:20;;;;;;;13.57;9.98;;;17.00;99.90;;;;;;4979480;28;20236;-78
2021/09/08 06:53:47;;;;;;;17.65;11.50;;;17.10;99.90;;;;;;4973592;28;20215;-78
2021/09/08 06:56:14;;;;;;;18.33;11.00;;;17.10;99.90;;;;;;4974706;28;20208;-78
2021/09/08 07:04:19;;;;;;;16.00;10.52;;;17.40;99.90;;;;;;4981233;28;20574;-78
2021/09/08 07:09:27;;;;;;;16.42;10.80;;;17.50;99.90;;;;;;4971877;28;20242;-78
2021/09/08 07:11:54;;;;;;;12.20;8.90;;;17.70;99.90;;;;;;4976917;28;20233;-77
2021/09/08 07:14:21;;;;;;;18.38;11.13;;;17.80;99.90;;;;;;4972543;28;20200;-78
2021/09/08 07:19:33;;;;;;;17.67;11.68;;;18.20;99.90;;;;;;4976118;28;20231;-77
2021/09/08 07:22:00;;;;;;;15.63;10.40;;;18.60;99.90;;;;;;4978012;28;20262;-75
2021/09/08 07:24:27;;;;;;;14.98;10.15;;;19.00;99.90;;;;;;4975816;28;20217;-78
2021/09/08 07:26:57;;;;;;;12.82;9.57;;;19.40;99.90;;;;;;4972990;28;20207;-78
2021/09/08 07:29:24;;;;;;;16.50;9.30;;;19.90;99.90;;;;;;4970890;28;20230;-75
2021/09/08 07:31:51;;;;;;;11.55;8.32;;;20.40;99.90;;;;;;4969978;28;20220;-74
2021/09/08 07:34:18;;;;;;;13.60;9.65;;;21.00;99.90;;;;;;4974929;28;20197;-75
2021/09/08 07:36:47;;;;;;;14.38;8.73;;;21.50;99.90;;;;;;4978867;28;20271;-78
2021/09/08 07:39:14;;;;;;;14.70;9.52;;;22.00;99.90;;;;;;4973509;28;20236;-77
2021/09/08 07:41:40;;;;;;;13.60;8.55;;;22.50;99.90;;;;;;4972711;28;20566;-75
2021/09/08 07:44:07;;;;;;;13.27;9.43;;;23.00;99.90;;;;;;4977566;28;20207;-73
2021/09/08 07:46:35;;;;;;;11.65;8.32;;;23.40;99.90;;;;;;4977179;28;20687;-75
2021/09/08 07:49:03;;;;;;;11.65;8.68;;;23.70;99.90;;;;;;4973536;28;20232;-75
2021/09/08 07:51:29;;;;;;;13.43;8.20;;;24.00;99.90;;;;;;4973008;28;20749;-76
2021/09/08 07:53:59;;;;;;;15.80;8.13;;;24.30;99.90;;;;;;4972676;28;20211;-76
2021/09/08 07:56:26;;;;;;;13.13;8.52;;;24.60;99.90;;;;;;4970937;28;20250;-76
2021/09/08 07:58:53;;;;;;;12.20;8.68;;;25.00;99.90;;;;;;4973939;28;22327;-75
2021/09/08 08:01:20;;;;;;;11.93;8.50;;;25.20;99.90;;;;;;4970499;28;20201;-77
2021/09/08 08:03:47;;;;;;;11.38;8.02;;;25.50;99.90;;;;;;4984966;28;20212;-78
2021/09/08 08:06:14;;;;;;;14.38;8.57;;;25.80;99.90;;;;;;4978068;28;20244;-78
2021/09/08 08:08:41;;;;;;;11.23;8.63;;;26.10;99.90;;;;;;4971691;28;20240;-78
2021/09/08 08:11:10;;;;;;;15.27;9.43;;;26.40;99.90;;;;;;4972421;28;20232;-77
2021/09/08 08:18:58;;;;;;;10.18;7.88;;;27.40;99.90;;;;;;4976370;28;20235;-76
2021/09/08 08:21:25;;;;;;;11.73;9.18;;;27.70;99.90;;;;;;4969112;28;20205;-75
2021/09/08 08:23:53;;;;;;;16.48;8.63;;;27.70;99.90;;;;;;4972862;28;20209;-75
2021/09/08 08:26:22;;;;;;;18.90;9.82;;;27.80;99.90;;;;;;4981568;28;20270;-75
2021/09/08 08:28:49;;;;;;;12.40;8.95;;;28.10;99.90;;;;;;4977756;28;20256;-78
2021/09/08 08:31:16;;;;;;;11.85;8.73;;;28.30;99.90;;;;;;4979802;28;20204;-78
2021/09/08 08:36:32;;;;;;;12.38;8.48;;;28.90;99.90;;;;;;4971790;28;20265;-78
2021/09/08 08:41:56;;;;;;;14.23;9.10;;;29.10;99.90;;;;;;4973665;28;20211;-78
2021/09/08 08:44:25;;;;;;;18.02;9.80;;;29.10;99.90;;;;;;4976598;28;20210;-78
2021/09/08 08:46:53;;;;;;;17.65;9.95;;;29.50;99.90;;;;;;4976919;28;20262;-78
2021/09/08 08:49:20;;;;;;;11.93;8.55;;;29.70;99.90;;;;;;4971142;28;20230;-78
2021/09/08 08:59:52;;;;;;;10.18;8.43;;;30.40;99.90;;;;;;4974899;28;20203;-77
2021/09/08 09:02:21;;;;;;;13.60;9.80;;;30.50;99.90;;;;;;4975279;28;20205;-77
2021/09/08 09:04:48;;;;;;;12.05;8.85;;;30.80;99.90;;;;;;4970637;28;20298;-78
2021/09/08 09:07:23;;;;;;;11.82;8.30;;;30.90;99.90;;;;;;4969819;28;20231;-77
2021/09/08 09:09:52;;;;;;;12.98;9.02;;;31.00;99.90;;;;;;4972896;28;20660;-76
2021/09/08 09:12:24;;;;;;;17.45;9.02;;;31.10;99.90;;;;;;4974320;28;20204;-78
2021/09/08 09:14:51;;;;;;;9.32;8.32;;;31.00;99.90;;;;;;4970305;28;20215;-77
2021/09/08 09:17:19;;;;;;;13.93;8.75;;;31.00;99.90;;;;;;4970561;28;20207;-77
2021/09/08 09:19:47;;;;;;;18.40;9.70;;;30.80;99.90;;;;;;4969870;28;20295;-78
2021/09/08 09:22:16;;;;;;;11.32;8.77;;;30.50;99.90;;;;;;4978932;28;20215;-78
2021/09/08 09:24:43;;;;;;;14.77;9.07;;;30.20;99.90;;;;;;4974661;28;20271;-78
2021/09/08 09:27:11;;;;;;;11.65;8.40;;;30.70;99.90;;;;;;4969706;28;20200;-78
2021/09/08 09:29:44;;;;;;;11.90;8.52;;;31.20;99.90;;;;;;4974978;28;20291;-79
2021/09/08 09:32:12;;;;;;;10.35;7.95;;;31.60;99.90;;;;;;4970544;28;20240;-79
2021/09/08 09:34:40;;;;;;;13.68;8.07;;;32.00;99.90;;;;;;4975468;28;20227;-79
2021/09/08 09:37:10;;;;;;;12.32;8.50;;;32.30;99.90;;;;;;4976285;28;20209;-78
2021/09/08 09:39:39;;;;;;;12.98;7.75;;;32.50;99.90;;;;;;4976605;28;20269;-78
2021/09/08 09:42:12;;;;;;;12.30;8.52;;;32.60;99.90;;;;;;4975301;28;20209;-76
2021/09/08 09:44:41;;;;;;;8.77;7.88;;;32.90;99.90;;;;;;4969810;28;20216;-76
2021/09/08 09:47:09;;;;;;;9.70;7.70;;;33.20;99.90;;;;;;4968912;28;20201;-76
2021/09/08 09:57:39;;;;;;;10.85;8.00;;;34.00;99.80;;;;;;4981255;28;20272;-79
2021/09/08 10:00:07;;;;;;;11.98;8.55;;;34.10;98.70;;;;;;4972098;28;20204;-79
2021/09/08 10:05:10;;;;;;;8.85;7.95;;;33.50;99.30;;;;;;5090002;27;20570;-77
2021/09/08 10:07:38;;;;;;;12.15;7.90;;;33.90;98.20;;;;;;5099956;28;20196;-79
2021/09/08 10:12:55;;;;;;;16.33;8.48;;;33.90;97.10;;;;;;5088239;28;20196;-79
2021/09/08 10:21:04;;;;;;;10.70;7.38;;;34.20;96.80;;;;;;5080939;28;20204;-79
2021/09/08 10:23:35;;;;;;;10.70;7.78;;;33.70;95.40;;;;;;5091971;28;20247;-80
2021/09/08 10:26:11;;;;;;;11.75;7.97;;;33.40;95.70;;;;;;5099356;28;20216;-80
2021/09/08 10:36:47;;;;;;;13.98;12.50;;;33.90;93.70;;;;;;5091039;28;20204;-79
2021/09/08 10:44:44;;;;;;;17.70;16.05;;;33.60;94.90;;;;;;5089065;28;20289;-80
2021/09/08 10:47:11;;;;;;;20.08;18.10;;;33.70;93.60;;;;;;5088594;28;20262;-80
2021/09/08 10:52:49;;;;;;;25.88;23.92;;;33.40;94.40;;;;;;5091634;28;20311;-80
2021/09/08 10:55:25;;;;;;;20.02;18.17;;;33.10;94.80;;;;;;5082882;28;20574;-80
2021/09/08 10:58:01;;;;;;;16.13;14.68;;;33.10;94.20;;;;;;5082794;28;20551;-80
2021/09/08 11:00:40;;;;;;;11.30;10.18;;;33.10;95.00;;;;;;5085283;28;20286;-80
2021/09/08 11:06:00;;;;;;;11.00;8.20;;;33.00;95.70;;;;;;5078195;28;20470;-80
2021/09/08 11:08:37;;;;;;;16.92;15.27;;;32.80;93.40;;;;;;5087021;28;20207;-80
2021/09/08 11:16:32;;;;;;;14.30;12.07;;;31.30;95.40;;;;;;5071414;28;20243;-80
2021/09/08 11:24:30;;;;;;;32.30;29.88;;;30.00;95.40;;;;;;5087751;28;20224;-80
2021/09/08 11:27:07;;;;;;;37.70;35.28;;;29.90;96.00;;;;;;5080885;28;20242;-80
2021/09/08 11:29:34;;;;;;;32.47;30.20;;;29.70;96.80;;;;;;5073922;28;20207;-80
2021/09/08 11:32:02;;;;;;;30.20;28.00;;;29.30;95.90;;;;;;5074800;28;20198;-81
2021/09/08 11:40:09;;;;;;;33.55;31.25;;;28.90;97.90;;;;;;5077356;28;20235;-80
2021/09/08 11:42:42;;;;;;;38.72;36.17;;;28.70;97.70;;;;;;5083500;28;20212;-80
2021/09/08 11:47:54;;;;;;;45.88;42.95;;;28.40;97.30;;;;;;5067340;28;20525;-80
2021/09/08 11:56:06;;;;;;;35.50;33.28;;;28.40;97.70;;;;;;5065927;28;20231;-80
2021/09/08 11:58:33;;;;;;;43.47;40.60;;;28.30;97.30;;;;;;5076952;28;20298;-80
2021/09/08 12:06:26;;;;;;;28.65;26.35;;;28.30;97.30;;;;;;5077222;28;20260;-79
2021/09/08 12:11:56;;;;;;;38.67;36.00;;;28.30;97.50;;;;;;5058962;28;20295;-79
2021/09/08 12:14:29;;;;;;;27.33;25.45;;;28.30;96.40;;;;;;5069206;28;20224;-79
2021/09/08 12:17:05;;;;;;;30.27;26.50;;;28.30;96.30;;;;;;5071326;28;20199;-80
2021/09/08 12:22:18;;;;;;;57.00;53.47;;;28.20;97.40;;;;;;5075783;28;20256;-77
2021/09/08 12:24:46;;;;;;;15.20;13.70;;;28.20;98.90;;;;;;5079645;28;20235;-77
2021/09/08 12:27:32;;;;;;;27.20;25.35;;;28.20;97.80;;;;;;5066309;28;20211;-77
2021/09/08 12:30:02;;;;;;;22.33;20.73;;;28.20;96.80;;;;;;5073357;28;20207;-77
2021/09/08 12:32:53;;;;;;;49.33;46.20;;;28.20;96.90;;;;;;5073726;28;20539;-77
2021/09/08 12:35:43;;;;;;;28.05;25.73;;;28.10;97.00;;;;;;5066625;28;20331;-77
2021/09/08 12:38:28;;;;;;;32.10;30.05;;;28.10;97.30;;;;;;5069206;28;20255;-76
2021/09/08 12:41:06;;;;;;;43.00;40.15;;;28.10;98.40;;;;;;5078218;28;20207;-77
2021/09/08 12:43:35;;;;;;;7.72;6.85;;;28.20;97.90;;;;;;5080267;28;20231;-77
2021/09/08 12:46:02;;;;;;;40.00;36.42;;;28.20;98.20;;;;;;5066625;28;20731;-77
2021/09/08 12:48:29;;;;;;;29.30;27.33;;;28.20;97.60;;;;;;5070749;28;20259;-76
2021/09/08 12:50:56;;;;;;;38.72;36.13;;;28.20;98.20;;;;;;5072436;28;20229;-76
2021/09/08 12:53:23;;;;;;;33.35;30.92;;;28.20;97.70;;;;;;5080771;28;20239;-77
2021/09/08 12:55:51;;;;;;;33.78;31.42;;;28.10;97.70;;;;;;5073440;28;20267;-77
2021/09/08 12:58:18;;;;;;;22.48;20.75;;;28.10;97.90;;;;;;5074415;28;20200;-77
2021/09/08 13:00:46;;;;;;;42.33;39.67;;;28.10;98.00;;;;;;5068210;28;20264;-76
2021/09/08 13:03:14;;;;;;;30.67;28.48;;;28.10;97.00;;;;;;5070562;28;20274;-77
2021/09/08 13:05:41;;;;;;;29.67;27.83;;;28.10;97.00;;;;;;5069377;28;20203;-76
2021/09/08 13:08:08;;;;;;;48.25;45.13;;;27.90;96.30;;;;;;5071718;28;20214;-77
2021/09/08 13:10:36;;;;;;;40.55;38.20;;;27.80;95.90;;;;;;5064939;28;20211;-77
2021/09/08 13:13:03;;;;;;;32.72;30.58;;;27.80;95.80;;;;;;5072940;28;20207;-78
2021/09/08 13:15:30;;;;;;;42.55;39.95;;;27.80;96.00;;;;;;5069125;28;20191;-77
2021/09/08 13:17:59;;;;;;;30.15;28.05;;;27.80;97.00;;;;;;5077994;28;20195;-77
2021/09/08 13:20:26;;;;;;;44.78;42.22;;;27.80;96.90;;;;;;5068500;28;20203;-77
2021/09/08 13:22:53;;;;;;;41.17;38.83;;;27.80;96.40;;;;;;5083723;28;20204;-78
2021/09/08 13:25:20;;;;;;;39.10;36.50;;;27.80;96.30;;;;;;5075805;28;20228;-77
2021/09/08 13:30:29;;;;;;;8.40;6.35;;;27.80;96.90;;;;;;5077519;28;20238;-79
2021/09/08 13:32:56;;;;;;;42.95;40.42;;;27.80;96.40;;;;;;5070458;28;20211;-78
2021/09/08 13:35:28;;;;;;;6.50;5.88;;;27.80;96.80;;;;;;5082226;28;20194;-77
2021/09/08 13:37:56;;;;;;;14.50;13.25;;;27.80;97.40;;;;;;5071683;28;20260;-77
2021/09/08 13:40:23;;;;;;;18.17;16.77;;;27.80;97.20;;;;;;5072864;28;20229;-79
2021/09/08 13:42:50;;;;;;;22.90;21.02;;;27.70;96.90;;;;;;5077566;28;20206;-77
2021/09/08 13:45:17;;;;;;;26.92;25.05;;;27.70;96.70;;;;;;5068683;28;21063;-76
2021/09/08 13:47:45;;;;;;;27.70;25.80;;;27.70;96.40;;;;;;5070659;28;20208;-76
2021/09/08 13:50:12;;;;;;;7.65;5.97;;;27.70;97.10;;;;;;5069739;28;20210;-77
2021/09/08 13:52:41;;;;;;;7.45;6.22;;;27.70;97.00;;;;;;5059117;28;20203;-77
2021/09/08 13:55:08;;;;;;;11.68;10.73;;;27.60;97.30;;;;;;5075418;28;20249;-77
2021/09/08 13:57:35;;;;;;;21.83;20.42;;;27.60;97.70;;;;;;5073717;28;20255;-78
2021/09/08 14:05:31;;;;;;;7.75;6.15;;;27.70;96.60;;;;;;5061246;28;20261;-79
2021/09/08 14:10:43;;;;;;;9.60;6.50;;;27.90;96.20;;;;;;5068815;28;20208;-79
2021/09/08 14:13:09;;;;;;;9.90;5.82;;;27.90;96.80;;;;;;5074423;28;20207;-79
2021/09/08 14:18:18;;;;;;;5.95;5.35;;;27.90;98.20;;;;;;5074306;28;20234;-79
2021/09/08 14:20:45;;;;;;;9.18;6.20;;;27.80;97.20;;;;;;5066659;28;20411;-79
2021/09/08 14:23:13;;;;;;;10.90;7.10;;;27.80;96.80;;;;;;5080525;28;20207;-79
2021/09/08 14:25:40;;;;;;;6.93;5.75;;;27.80;97.00;;;;;;5070752;28;20228;-79
2021/09/08 14:28:07;;;;;;;8.32;5.85;;;27.80;96.80;;;;;;5077220;28;20237;-79
2021/09/08 14:30:35;;;;;;;8.10;6.00;;;27.80;97.10;;;;;;5075453;28;20211;-79
2021/09/08 14:33:01;;;;;;;7.18;6.10;;;27.90;96.60;;;;;;5070419;28;20206;-79
2021/09/08 14:35:29;;;;;;;11.95;6.28;;;27.90;97.00;;;;;;5073944;28;20203;-80
2021/09/08 14:37:56;;;;;;;5.93;5.32;;;27.90;96.70;;;;;;5079338;28;20571;-79
2021/09/08 14:40:27;;;;;;;8.05;6.88;;;27.90;97.20;;;;;;5067714;28;20196;-79
2021/09/08 14:42:58;;;;;;;9.27;6.70;;;27.90;97.70;;;;;;5078958;28;20207;-80
2021/09/08 14:45:25;;;;;;;7.72;6.28;;;27.90;97.50;;;;;;5077558;28;20234;-77
2021/09/08 14:47:52;;;;;;;52.08;48.70;;;27.90;97.50;;;;;;5072661;28;20638;-79
2021/09/08 14:50:19;;;;;;;14.48;9.18;;;28.00;97.40;;;;;;5070000;28;20201;-79
2021/09/08 14:52:46;;;;;;;45.72;43.00;;;28.00;97.60;;;;;;5077858;28;20203;-79
2021/09/08 14:55:13;;;;;;;11.68;6.30;;;28.00;96.40;;;;;;5070989;28;20226;-80
2021/09/08 14:57:41;;;;;;;24.42;22.60;;;27.90;96.70;;;;;;5084201;28;20239;-79
2021/09/08 15:00:10;;;;;;;84.85;78.35;;;27.80;96.80;;;;;;5067326;28;21197;-79
2021/09/08 15:02:37;;;;;;;42.72;40.15;;;27.90;97.40;;;;;;5078097;28;20208;-79
2021/09/08 15:07:47;;;;;;;87.30;82.38;;;27.80;97.60;;;;;;5088057;28;20223;-79
2021/09/08 15:10:14;;;;;;;72.57;68.32;;;27.80;97.10;;;;;;5077433;28;20197;-79
2021/09/08 15:12:42;;;;;;;69.47;65.18;;;27.70;97.20;;;;;;5079812;28;20517;-80
2021/09/08 15:15:18;;;;;;;73.55;69.30;;;27.70;97.80;;;;;;5068908;28;20696;-79
2021/09/08 15:17:45;;;;;;;60.08;56.63;;;27.70;97.90;;;;;;5074287;28;20219;-79
2021/09/08 15:20:13;;;;;;;55.38;52.33;;;27.60;97.80;;;;;;5074876;28;20218;-79
2021/09/08 15:22:42;;;;;;;6.95;5.38;;;27.60;98.10;;;;;;5083982;28;20233;-79
2021/09/08 15:25:13;;;;;;;10.20;7.72;;;27.60;97.90;;;;;;5077224;28;20235;-78
2021/09/08 15:27:40;;;;;;;46.55;43.88;;;27.60;98.30;;;;;;5078860;28;20329;-79
2021/09/08 15:30:13;;;;;;;48.33;45.45;;;27.50;98.20;;;;;;5082346;28;20207;-79
2021/09/08 15:32:40;;;;;;;11.52;6.82;;;27.60;98.80;;;;;;5065057;28;20209;-79
2021/09/08 15:35:09;;;;;;;8.77;5.75;;;27.50;98.10;;;;;;5084444;28;20253;-79
2021/09/08 15:37:36;;;;;;;8.68;6.60;;;27.50;97.70;;;;;;5088595;28;20218;-79
2021/09/08 15:40:03;;;;;;;11.40;6.97;;;27.50;97.90;;;;;;5072907;28;20230;-78
2021/09/08 15:42:30;;;;;;;10.75;6.65;;;27.60;97.90;;;;;;5076799;28;20227;-78
2021/09/08 15:44:57;;;;;;;6.35;5.65;;;27.60;98.20;;;;;;5083874;28;20249;-77
2021/09/08 15:47:26;;;;;;;7.32;5.80;;;27.60;98.10;;;;;;5075775;28;20207;-77
2021/09/08 15:49:52;;;;;;;10.15;6.38;;;27.60;98.40;;;;;;5078836;28;20204;-77
2021/09/08 15:52:19;;;;;;;8.30;6.32;;;27.60;98.00;;;;;;5071428;28;20227;-77
2021/09/08 15:54:46;;;;;;;6.82;6.10;;;27.60;99.00;;;;;;5077549;28;20207;-77
2021/09/08 15:57:13;;;;;;;48.80;45.90;;;27.60;97.90;;;;;;5077837;28;20217;-78
2021/09/08 15:59:40;;;;;;;46.72;42.92;;;27.50;97.40;;;;;;5077357;28;20233;-78
2021/09/08 16:02:07;;;;;;;61.60;58.15;;;27.50;98.10;;;;;;5074196;28;20258;-77
2021/09/08 16:04:35;;;;;;;52.65;49.65;;;27.50;98.60;;;;;;5072960;28;20243;-78
2021/09/08 16:07:02;;;;;;;8.98;7.07;;;27.50;98.60;;;;;;5077791;28;20219;-78
2021/09/08 16:09:29;;;;;;;42.13;39.53;;;27.40;98.70;;;;;;5078617;28;20238;-79
2021/09/08 16:11:56;;;;;;;60.70;57.25;;;27.40;98.20;;;;;;5086145;28;20215;-78
2021/09/08 16:14:27;;;;;;;60.80;57.20;;;27.40;98.20;;;;;;5062577;28;20201;-76
2021/09/08 16:16:54;;;;;;;63.15;59.60;;;27.40;98.30;;;;;;5074456;28;20234;-77
2021/09/08 16:19:21;;;;;;;27.02;25.10;;;27.40;98.20;;;;;;5073699;28;20204;-77
2021/09/08 16:21:49;;;;;;;24.17;22.48;;;27.40;98.10;;;;;;5064708;28;20211;-77
2021/09/08 16:24:16;;;;;;;9.05;6.10;;;27.30;98.20;;;;;;5073458;28;20211;-78
2021/09/08 16:26:43;;;;;;;53.00;49.70;;;27.30;97.70;;;;;;5075806;28;20668;-74
2021/09/08 16:29:10;;;;;;;51.28;48.35;;;27.30;98.10;;;;;;5075342;28;20196;-77
2021/09/08 16:31:37;;;;;;;51.05;48.00;;;27.40;98.40;;;;;;5078125;28;20199;-77